Davis Monthan Air Force Base
KDMA : rendu visible

Aérodrome :











RETROUVEZ-NOUS SUR...

 
LOGIN :

S'inscrire | Disclaimer

   EN    FR    IT 

 









Légende :    VFR   VFR Marginal   IFR   IFR Intensif   IFR Très Intensif
Visi : 
Plafond : 
>= 8 km
>= 3000ft
5 à 8 km
1000 à 3000 ft
1500m à 5 km
500 à 1000 ft
800 à 1500m
200 à 500 ft
< 800m
< 200 ft
Symboles :   Orages  Brouillard  Fortes neiges  Fortes précipitations  Vent > 20 kt






- Altitude de l'aérodrome : 2704 ft


KDMA - Davis Monthan Air Force Base

DERNIER METAR :
  • 271258Z AUTO 13004KT 10SM CLR 20/M04 A2996 RMK AO2 SLP101 T02011036 FZRANO $

METARs EXPIRÉS :
  • 271158Z AUTO 11005KT 10SM CLR 19/M05 A2994 RMK AO2 SLP094 T01851049 10275 20182 55000 FZRANO $
  • 271058Z AUTO 00000KT 10SM CLR 19/M06 A2993 RMK AO2 SLP090 T01911058 FZRANO $

TAF TAF KDMA
Valide du 27 à 06h jusqu'au 28 à 12h UTC


270603Z 2706/2812 VRB06KT 9999 SKC QNH2992INS
BECMG 2709/2710 12006KT 9999 SKC QNH2994INS
BECMG 2716/2717 30009KT 9999 SKC QNH2984INS
BECMG 2801/2802 VRB06KT 9999 SKC QNH2985INS TX39/2722Z TN15/2713Z
FIR KZAB / Amérique du Nord



MET'MAP, la Météo Aéronautique d'un coup d'oeil ! - Copyright ORBIFLY Décembre 2007 - Disclaimer

ORBIFLY MET'MAP TEAM :

Programmation & Développement : Alexandra Zaïnal
Sur une idée originale de : Baudouin d'Aumeries
Assistance à la programmation : Marc-Olivier Méhu
Soutien technique & logistique : Manuel Goepfert

Contact : metmap@orbifly.com




SOURCES & CREDITS :

   NOAA       Earth
Advisory